首页
METAR-TAF:

METAR-TAF

机场 :

巴西利亚, 巴西利亚联邦行政区, 巴西

巴西利亚-儒塞利诺·库比契克总统国际机场

纬度: 15-52S, 经度: 047-56W, 海拔: 1061米

当前天气观测

该预报发布于1小时和8分钟前的14:00 UTC
风速11节,风向东北,在北转东北之间变化
温度 28°C
湿度 37%
气压 1020 hPa
能见度10公里或以上
少量云层高于2000英尺

METAR: SBBR 201400Z 05011KT 020V080 9999 FEW020 28/12 Q1020

时间: 13:08 (15:08 UTC)

预报

该预报发布于5小时和8分钟前的10:00 UTC
预报有效从20日的 12点(UTC)到 21日的 12点(UTC)
风速7节,风向
能見度: 8000
多云层高于4000英尺
成为
从 20日的 19点(UTC)到 20日的 21点(UTC)
能見度: 8000
成为
从 21日的 00点(UTC)到 21日的 02点(UTC)
风速5节,风向西南
能见度10公里或以上
1500米以下无云,无积雨云
成为
从 21日的 09点(UTC)到 21日的 11点(UTC)
风速5节,风向东转东北

TAF: SBBR 201000Z 2012/2112 06007KT 8000 NSC TX30/2018Z TN17/2108Z BEC MG 2015/2017 10007KT BKN040 BECMG 2019/2021 8000 NSC BECMG 2100/2102 22005KT CAVOK BECMG 2109/2111 07005KT RMK PDB

超过4000个机场的气象观测和天气预报(METAR&TAF报告)。

可查询的气象台以黄色和红色小点在地图上表示。

将鼠标移到小点上方,可查看气象台名称。

然后点击查看天气观测和预报。

如需切换地图:点击带黑十字的绿色按钮放大地图;点击带横线的绿色按钮缩小地图;或者点击绿色箭头查看邻近地区的地图。


METAR-TAF: